sensor_id;sensor_type;location;lat;lon;timestamp;temperature;humidity
35960;DHT22;22043;50.970;7.192;2022-10-10T00:00:31;11.40;99.90
35960;DHT22;22043;50.970;7.192;2022-10-10T00:02:57;11.40;99.90
35960;DHT22;22043;50.970;7.192;2022-10-10T00:05:23;11.40;99.90
35960;DHT22;22043;50.970;7.192;2022-10-10T00:07:48;11.30;99.90
35960;DHT22;22043;50.970;7.192;2022-10-10T00:10:14;11.30;99.90
35960;DHT22;22043;50.970;7.192;2022-10-10T00:12:40;11.30;99.90
35960;DHT22;22043;50.970;7.192;2022-10-10T00:15:06;11.30;99.90
35960;DHT22;22043;50.970;7.192;2022-10-10T00:17:32;11.30;99.90
35960;DHT22;22043;50.970;7.192;2022-10-10T00:19:57;11.20;99.90
35960;DHT22;22043;50.970;7.192;2022-10-10T00:22:23;11.20;99.90
35960;DHT22;22043;50.970;7.192;2022-10-10T00:24:49;11.20;99.90
35960;DHT22;22043;50.970;7.192;2022-10-10T00:27:14;11.20;99.90
35960;DHT22;22043;50.970;7.192;2022-10-10T00:29:40;11.30;99.90
35960;DHT22;22043;50.970;7.192;2022-10-10T00:32:06;11.20;99.90
35960;DHT22;22043;50.970;7.192;2022-10-10T00:34:31;11.20;99.90
35960;DHT22;22043;50.970;7.192;2022-10-10T00:36:57;11.20;99.90
35960;DHT22;22043;50.970;7.192;2022-10-10T00:39:23;11.20;99.90
35960;DHT22;22043;50.970;7.192;2022-10-10T00:41:48;11.20;99.90
35960;DHT22;22043;50.970;7.192;2022-10-10T00:44:14;11.10;99.90
35960;DHT22;22043;50.970;7.192;2022-10-10T00:46:41;11.20;99.90
35960;DHT22;22043;50.970;7.192;2022-10-10T00:49:16;11.20;99.90
35960;DHT22;22043;50.970;7.192;2022-10-10T00:51:46;11.10;99.90
35960;DHT22;22043;50.970;7.192;2022-10-10T00:54:15;11.10;99.90
35960;DHT22;22043;50.970;7.192;2022-10-10T00:57:04;11.10;99.90
35960;DHT22;22043;50.970;7.192;2022-10-10T00:59:31;11.10;99.90
35960;DHT22;22043;50.970;7.192;2022-10-10T01:01:57;11.10;99.90
35960;DHT22;22043;50.970;7.192;2022-10-10T01:04:41;11.10;99.90
35960;DHT22;22043;50.970;7.192;2022-10-10T01:07:12;11.10;99.90
35960;DHT22;22043;50.970;7.192;2022-10-10T01:09:40;11.10;99.90
35960;DHT22;22043;50.970;7.192;2022-10-10T01:15:06;11.00;99.90
35960;DHT22;22043;50.970;7.192;2022-10-10T01:17:53;11.00;99.90
35960;DHT22;22043;50.970;7.192;2022-10-10T01:28:23;11.10;99.90
35960;DHT22;22043;50.970;7.192;2022-10-10T01:30:50;11.10;99.90
35960;DHT22;22043;50.970;7.192;2022-10-10T01:33:22;11.10;99.90
35960;DHT22;22043;50.970;7.192;2022-10-10T01:35:58;11.10;99.90
35960;DHT22;22043;50.970;7.192;2022-10-10T01:38:57;11.10;99.90
35960;DHT22;22043;50.970;7.192;2022-10-10T01:41:29;11.10;99.90
35960;DHT22;22043;50.970;7.192;2022-10-10T01:43:57;11.10;99.90
35960;DHT22;22043;50.970;7.192;2022-10-10T01:46:24;11.10;99.90
35960;DHT22;22043;50.970;7.192;2022-10-10T01:48:52;11.10;99.90
35960;DHT22;22043;50.970;7.192;2022-10-10T01:57:05;11.10;99.90
35960;DHT22;22043;50.970;7.192;2022-10-10T02:02:15;11.10;99.90
35960;DHT22;22043;50.970;7.192;2022-10-10T02:04:51;11.10;99.90
35960;DHT22;22043;50.970;7.192;2022-10-10T02:07:41;11.00;99.90
35960;DHT22;22043;50.970;7.192;2022-10-10T02:10:09;11.00;99.90
35960;DHT22;22043;50.970;7.192;2022-10-10T02:12:36;11.00;99.90
35960;DHT22;22043;50.970;7.192;2022-10-10T02:15:10;11.00;99.90
35960;DHT22;22043;50.970;7.192;2022-10-10T02:17:38;11.00;99.90
35960;DHT22;22043;50.970;7.192;2022-10-10T02:20:07;11.00;99.90
35960;DHT22;22043;50.970;7.192;2022-10-10T02:22:35;11.00;99.90
35960;DHT22;22043;50.970;7.192;2022-10-10T02:25:01;10.90;99.90
35960;DHT22;22043;50.970;7.192;2022-10-10T02:27:48;10.90;99.90
35960;DHT22;22043;50.970;7.192;2022-10-10T02:30:16;10.90;99.90
35960;DHT22;22043;50.970;7.192;2022-10-10T02:32:46;10.90;99.90
35960;DHT22;22043;50.970;7.192;2022-10-10T02:35:34;10.90;99.90
35960;DHT22;22043;50.970;7.192;2022-10-10T02:38:04;10.80;99.90
35960;DHT22;22043;50.970;7.192;2022-10-10T02:40:32;10.80;99.90
35960;DHT22;22043;50.970;7.192;2022-10-10T02:43:01;10.80;99.90
35960;DHT22;22043;50.970;7.192;2022-10-10T02:45:29;10.80;99.90
35960;DHT22;22043;50.970;7.192;2022-10-10T02:47:55;10.80;99.90
35960;DHT22;22043;50.970;7.192;2022-10-10T02:50:21;10.80;99.90
35960;DHT22;22043;50.970;7.192;2022-10-10T02:52:47;10.80;99.90
35960;DHT22;22043;50.970;7.192;2022-10-10T02:55:13;10.80;99.90
35960;DHT22;22043;50.970;7.192;2022-10-10T02:57:38;10.80;99.90
35960;DHT22;22043;50.970;7.192;2022-10-10T03:00:05;10.80;99.90
35960;DHT22;22043;50.970;7.192;2022-10-10T03:02:31;10.70;99.90
35960;DHT22;22043;50.970;7.192;2022-10-10T03:04:57;10.80;99.90
35960;DHT22;22043;50.970;7.192;2022-10-10T03:07:24;10.70;99.90
35960;DHT22;22043;50.970;7.192;2022-10-10T03:09:50;10.70;99.90
35960;DHT22;22043;50.970;7.192;2022-10-10T03:12:16;10.70;99.90
35960;DHT22;22043;50.970;7.192;2022-10-10T03:14:42;10.70;99.90
35960;DHT22;22043;50.970;7.192;2022-10-10T03:17:08;10.70;99.90
35960;DHT22;22043;50.970;7.192;2022-10-10T03:19:34;10.70;99.90
35960;DHT22;22043;50.970;7.192;2022-10-10T03:21:59;10.70;99.90
35960;DHT22;22043;50.970;7.192;2022-10-10T03:24:25;10.70;99.90
35960;DHT22;22043;50.970;7.192;2022-10-10T03:26:51;10.60;99.90
35960;DHT22;22043;50.970;7.192;2022-10-10T03:29:16;10.70;99.90
35960;DHT22;22043;50.970;7.192;2022-10-10T03:31:42;10.70;99.90
35960;DHT22;22043;50.970;7.192;2022-10-10T03:34:08;10.70;99.90
35960;DHT22;22043;50.970;7.192;2022-10-10T03:36:34;10.60;99.90
35960;DHT22;22043;50.970;7.192;2022-10-10T03:38:59;10.60;99.90
35960;DHT22;22043;50.970;7.192;2022-10-10T03:41:25;10.60;99.90
35960;DHT22;22043;50.970;7.192;2022-10-10T03:43:50;10.60;99.90
35960;DHT22;22043;50.970;7.192;2022-10-10T03:46:16;10.60;99.90
35960;DHT22;22043;50.970;7.192;2022-10-10T03:48:42;10.60;99.90
35960;DHT22;22043;50.970;7.192;2022-10-10T03:51:08;10.60;99.90
35960;DHT22;22043;50.970;7.192;2022-10-10T03:53:33;10.60;99.90
35960;DHT22;22043;50.970;7.192;2022-10-10T03:55:59;10.60;99.90
35960;DHT22;22043;50.970;7.192;2022-10-10T03:58:24;10.50;99.90
35960;DHT22;22043;50.970;7.192;2022-10-10T04:00:55;10.50;99.90
35960;DHT22;22043;50.970;7.192;2022-10-10T04:03:22;10.50;99.90
35960;DHT22;22043;50.970;7.192;2022-10-10T04:05:47;10.50;99.90
35960;DHT22;22043;50.970;7.192;2022-10-10T04:08:13;10.50;99.90
35960;DHT22;22043;50.970;7.192;2022-10-10T04:10:38;10.50;99.90
35960;DHT22;22043;50.970;7.192;2022-10-10T04:13:04;10.50;99.90
35960;DHT22;22043;50.970;7.192;2022-10-10T04:15:30;10.50;99.90
35960;DHT22;22043;50.970;7.192;2022-10-10T04:17:57;10.50;99.90
35960;DHT22;22043;50.970;7.192;2022-10-10T04:20:23;10.50;99.90
35960;DHT22;22043;50.970;7.192;2022-10-10T04:22:49;10.50;99.90
35960;DHT22;22043;50.970;7.192;2022-10-10T04:25:15;10.50;99.90
35960;DHT22;22043;50.970;7.192;2022-10-10T04:27:40;10.40;99.90
35960;DHT22;22043;50.970;7.192;2022-10-10T04:30:08;10.40;99.90
35960;DHT22;22043;50.970;7.192;2022-10-10T04:32:34;10.50;99.90
35960;DHT22;22043;50.970;7.192;2022-10-10T04:35:00;10.50;99.90
35960;DHT22;22043;50.970;7.192;2022-10-10T04:37:26;10.50;99.90
35960;DHT22;22043;50.970;7.192;2022-10-10T04:39:52;10.50;99.90
35960;DHT22;22043;50.970;7.192;2022-10-10T04:42:17;10.40;99.90
35960;DHT22;22043;50.970;7.192;2022-10-10T04:44:43;10.40;99.90
35960;DHT22;22043;50.970;7.192;2022-10-10T04:47:09;10.50;99.90
35960;DHT22;22043;50.970;7.192;2022-10-10T04:49:34;10.40;99.90
35960;DHT22;22043;50.970;7.192;2022-10-10T04:52:00;10.40;99.90
35960;DHT22;22043;50.970;7.192;2022-10-10T04:54:25;10.40;99.90
35960;DHT22;22043;50.970;7.192;2022-10-10T04:56:51;10.40;99.90
35960;DHT22;22043;50.970;7.192;2022-10-10T04:59:17;10.40;99.90
35960;DHT22;22043;50.970;7.192;2022-10-10T05:01:42;10.40;99.90
35960;DHT22;22043;50.970;7.192;2022-10-10T05:04:08;10.40;99.90
35960;DHT22;22043;50.970;7.192;2022-10-10T05:06:34;10.40;99.90
35960;DHT22;22043;50.970;7.192;2022-10-10T05:09:00;10.40;99.90
35960;DHT22;22043;50.970;7.192;2022-10-10T05:11:25;10.40;99.90
35960;DHT22;22043;50.970;7.192;2022-10-10T05:13:51;10.40;99.90
35960;DHT22;22043;50.970;7.192;2022-10-10T05:16:17;10.40;99.90
35960;DHT22;22043;50.970;7.192;2022-10-10T05:18:42;10.30;99.90
35960;DHT22;22043;50.970;7.192;2022-10-10T05:21:08;10.40;99.90
35960;DHT22;22043;50.970;7.192;2022-10-10T05:23:36;10.30;99.90
35960;DHT22;22043;50.970;7.192;2022-10-10T05:26:03;10.30;99.90
35960;DHT22;22043;50.970;7.192;2022-10-10T05:28:29;10.30;99.90
35960;DHT22;22043;50.970;7.192;2022-10-10T05:30:55;10.30;99.90
35960;DHT22;22043;50.970;7.192;2022-10-10T05:33:21;10.20;99.90
35960;DHT22;22043;50.970;7.192;2022-10-10T05:35:46;10.30;99.90
35960;DHT22;22043;50.970;7.192;2022-10-10T05:38:12;10.30;99.90
35960;DHT22;22043;50.970;7.192;2022-10-10T05:40:40;10.30;99.90
35960;DHT22;22043;50.970;7.192;2022-10-10T05:43:06;10.30;99.90
35960;DHT22;22043;50.970;7.192;2022-10-10T05:45:32;10.40;99.90
35960;DHT22;22043;50.970;7.192;2022-10-10T05:47:58;10.40;99.90
35960;DHT22;22043;50.970;7.192;2022-10-10T05:50:33;10.30;99.90
35960;DHT22;22043;50.970;7.192;2022-10-10T05:53:00;10.30;99.90
35960;DHT22;22043;50.970;7.192;2022-10-10T05:55:26;10.30;99.90
35960;DHT22;22043;50.970;7.192;2022-10-10T05:57:52;10.30;99.90
35960;DHT22;22043;50.970;7.192;2022-10-10T06:00:18;10.20;99.90
35960;DHT22;22043;50.970;7.192;2022-10-10T06:02:44;10.30;99.90
35960;DHT22;22043;50.970;7.192;2022-10-10T06:05:09;10.30;99.90
35960;DHT22;22043;50.970;7.192;2022-10-10T06:07:35;10.30;99.90
35960;DHT22;22043;50.970;7.192;2022-10-10T06:10:01;10.30;99.90
35960;DHT22;22043;50.970;7.192;2022-10-10T06:12:27;10.30;99.90
35960;DHT22;22043;50.970;7.192;2022-10-10T06:14:52;10.20;99.90
35960;DHT22;22043;50.970;7.192;2022-10-10T06:17:18;10.30;99.90
35960;DHT22;22043;50.970;7.192;2022-10-10T06:19:43;10.30;99.90
35960;DHT22;22043;50.970;7.192;2022-10-10T06:22:09;10.30;99.90
35960;DHT22;22043;50.970;7.192;2022-10-10T06:24:35;10.30;99.90
35960;DHT22;22043;50.970;7.192;2022-10-10T06:27:01;10.30;99.90
35960;DHT22;22043;50.970;7.192;2022-10-10T06:29:26;10.30;99.90
35960;DHT22;22043;50.970;7.192;2022-10-10T06:31:52;10.40;99.90
35960;DHT22;22043;50.970;7.192;2022-10-10T06:34:18;10.40;99.90
35960;DHT22;22043;50.970;7.192;2022-10-10T06:36:44;10.40;99.90
35960;DHT22;22043;50.970;7.192;2022-10-10T06:39:09;10.40;99.90
35960;DHT22;22043;50.970;7.192;2022-10-10T06:41:35;10.40;99.90
35960;DHT22;22043;50.970;7.192;2022-10-10T06:44:08;10.40;99.90
35960;DHT22;22043;50.970;7.192;2022-10-10T06:46:34;10.50;99.90
35960;DHT22;22043;50.970;7.192;2022-10-10T06:49:05;10.50;99.90
35960;DHT22;22043;50.970;7.192;2022-10-10T06:51:31;10.50;99.90
35960;DHT22;22043;50.970;7.192;2022-10-10T06:53:57;10.50;99.90
35960;DHT22;22043;50.970;7.192;2022-10-10T06:56:24;10.50;99.90
35960;DHT22;22043;50.970;7.192;2022-10-10T06:58:51;10.50;99.90
35960;DHT22;22043;50.970;7.192;2022-10-10T07:01:18;10.60;99.90
35960;DHT22;22043;50.970;7.192;2022-10-10T07:03:44;10.60;99.90
35960;DHT22;22043;50.970;7.192;2022-10-10T07:06:10;10.60;99.90
35960;DHT22;22043;50.970;7.192;2022-10-10T07:08:37;10.70;99.90
35960;DHT22;22043;50.970;7.192;2022-10-10T07:11:03;10.60;99.90
35960;DHT22;22043;50.970;7.192;2022-10-10T07:13:30;10.70;99.90
35960;DHT22;22043;50.970;7.192;2022-10-10T07:15:56;10.70;99.90
35960;DHT22;22043;50.970;7.192;2022-10-10T07:18:21;10.80;99.90
35960;DHT22;22043;50.970;7.192;2022-10-10T07:20:47;10.80;99.90
35960;DHT22;22043;50.970;7.192;2022-10-10T07:23:14;10.90;99.90
35960;DHT22;22043;50.970;7.192;2022-10-10T07:25:40;10.90;99.90
35960;DHT22;22043;50.970;7.192;2022-10-10T07:28:06;11.00;99.90
35960;DHT22;22043;50.970;7.192;2022-10-10T07:30:33;11.00;99.90
35960;DHT22;22043;50.970;7.192;2022-10-10T07:32:58;11.10;99.90
35960;DHT22;22043;50.970;7.192;2022-10-10T07:35:24;11.10;99.90
35960;DHT22;22043;50.970;7.192;2022-10-10T07:37:53;11.20;99.90
35960;DHT22;22043;50.970;7.192;2022-10-10T07:40:21;11.20;99.90
35960;DHT22;22043;50.970;7.192;2022-10-10T07:42:46;11.20;99.90
35960;DHT22;22043;50.970;7.192;2022-10-10T07:45:12;11.30;99.90
35960;DHT22;22043;50.970;7.192;2022-10-10T07:47:38;11.40;99.90
35960;DHT22;22043;50.970;7.192;2022-10-10T07:50:05;11.40;99.90
35960;DHT22;22043;50.970;7.192;2022-10-10T07:52:33;11.40;99.90
35960;DHT22;22043;50.970;7.192;2022-10-10T07:54:59;11.50;99.90
35960;DHT22;22043;50.970;7.192;2022-10-10T07:57:25;11.60;99.90
35960;DHT22;22043;50.970;7.192;2022-10-10T07:59:51;11.60;99.90
35960;DHT22;22043;50.970;7.192;2022-10-10T08:02:16;11.70;99.90
35960;DHT22;22043;50.970;7.192;2022-10-10T08:04:43;11.80;99.90
35960;DHT22;22043;50.970;7.192;2022-10-10T08:07:09;11.90;99.90
35960;DHT22;22043;50.970;7.192;2022-10-10T08:09:35;12.00;99.90
35960;DHT22;22043;50.970;7.192;2022-10-10T08:12:00;12.00;99.90
35960;DHT22;22043;50.970;7.192;2022-10-10T08:14:26;12.00;99.90
35960;DHT22;22043;50.970;7.192;2022-10-10T08:16:52;12.10;99.90
35960;DHT22;22043;50.970;7.192;2022-10-10T08:19:17;12.10;99.90
35960;DHT22;22043;50.970;7.192;2022-10-10T08:21:43;12.20;99.90
35960;DHT22;22043;50.970;7.192;2022-10-10T08:24:08;12.20;99.90
35960;DHT22;22043;50.970;7.192;2022-10-10T08:26:34;12.20;99.90
35960;DHT22;22043;50.970;7.192;2022-10-10T08:29:00;12.30;99.90
35960;DHT22;22043;50.970;7.192;2022-10-10T08:31:25;12.30;99.90
35960;DHT22;22043;50.970;7.192;2022-10-10T08:33:51;12.40;99.90
35960;DHT22;22043;50.970;7.192;2022-10-10T08:36:20;12.50;99.90
35960;DHT22;22043;50.970;7.192;2022-10-10T08:38:46;12.50;99.90
35960;DHT22;22043;50.970;7.192;2022-10-10T08:43:50;12.60;99.90
35960;DHT22;22043;50.970;7.192;2022-10-10T08:46:30;12.60;99.90
35960;DHT22;22043;50.970;7.192;2022-10-10T08:49:01;12.60;99.90
35960;DHT22;22043;50.970;7.192;2022-10-10T08:51:36;12.70;99.90
35960;DHT22;22043;50.970;7.192;2022-10-10T08:54:05;12.70;99.90
35960;DHT22;22043;50.970;7.192;2022-10-10T08:56:33;12.70;99.90
35960;DHT22;22043;50.970;7.192;2022-10-10T08:59:22;12.80;99.90
35960;DHT22;22043;50.970;7.192;2022-10-10T09:01:51;12.70;99.90
35960;DHT22;22043;50.970;7.192;2022-10-10T09:04:19;12.70;99.90
35960;DHT22;22043;50.970;7.192;2022-10-10T09:09:36;12.70;99.90
35960;DHT22;22043;50.970;7.192;2022-10-10T09:12:28;12.80;99.90
35960;DHT22;22043;50.970;7.192;2022-10-10T09:17:50;12.80;99.90
35960;DHT22;22043;50.970;7.192;2022-10-10T09:20:41;12.80;99.90
35960;DHT22;22043;50.970;7.192;2022-10-10T09:25:45;12.80;99.90
35960;DHT22;22043;50.970;7.192;2022-10-10T09:28:21;12.80;99.90
35960;DHT22;22043;50.970;7.192;2022-10-10T09:30:54;12.70;99.90
35960;DHT22;22043;50.970;7.192;2022-10-10T09:35:47;12.80;99.90
35960;DHT22;22043;50.970;7.192;2022-10-10T09:39:17;12.80;99.90
35960;DHT22;22043;50.970;7.192;2022-10-10T09:41:16;12.80;99.90
35960;DHT22;22043;50.970;7.192;2022-10-10T09:43:43;12.90;99.90
35960;DHT22;22043;50.970;7.192;2022-10-10T09:46:08;12.90;99.90
35960;DHT22;22043;50.970;7.192;2022-10-10T09:48:39;12.90;99.90
35960;DHT22;22043;50.970;7.192;2022-10-10T09:51:11;12.90;99.90
35960;DHT22;22043;50.970;7.192;2022-10-10T09:53:37;13.00;99.90
35960;DHT22;22043;50.970;7.192;2022-10-10T09:56:04;13.00;99.90
35960;DHT22;22043;50.970;7.192;2022-10-10T09:58:43;13.10;99.90
35960;DHT22;22043;50.970;7.192;2022-10-10T10:01:15;13.10;99.90
35960;DHT22;22043;50.970;7.192;2022-10-10T10:03:42;13.20;99.90
35960;DHT22;22043;50.970;7.192;2022-10-10T10:06:13;13.20;99.90
35960;DHT22;22043;50.970;7.192;2022-10-10T10:08:39;13.20;99.90
35960;DHT22;22043;50.970;7.192;2022-10-10T10:11:24;13.30;99.90
35960;DHT22;22043;50.970;7.192;2022-10-10T10:13:55;13.30;99.90
35960;DHT22;22043;50.970;7.192;2022-10-10T10:16:36;13.30;99.90
35960;DHT22;22043;50.970;7.192;2022-10-10T10:19:02;13.40;99.90
35960;DHT22;22043;50.970;7.192;2022-10-10T10:21:28;13.40;99.90
35960;DHT22;22043;50.970;7.192;2022-10-10T10:24:00;13.50;99.90
35960;DHT22;22043;50.970;7.192;2022-10-10T10:26:43;13.60;99.90
35960;DHT22;22043;50.970;7.192;2022-10-10T10:29:31;13.70;99.90
35960;DHT22;22043;50.970;7.192;2022-10-10T10:31:59;13.80;99.90
35960;DHT22;22043;50.970;7.192;2022-10-10T10:37:25;13.90;99.90
35960;DHT22;22043;50.970;7.192;2022-10-10T10:45:43;14.10;99.90
35960;DHT22;22043;50.970;7.192;2022-10-10T10:50:52;14.20;99.90
35960;DHT22;22043;50.970;7.192;2022-10-10T10:56:40;14.30;99.90
35960;DHT22;22043;50.970;7.192;2022-10-10T10:59:21;14.30;99.90
35960;DHT22;22043;50.970;7.192;2022-10-10T11:04:55;14.20;99.90
35960;DHT22;22043;50.970;7.192;2022-10-10T11:07:33;14.30;99.90
35960;DHT22;22043;50.970;7.192;2022-10-10T11:10:21;14.20;99.90
35960;DHT22;22043;50.970;7.192;2022-10-10T11:15:49;14.30;99.90
35960;DHT22;22043;50.970;7.192;2022-10-10T11:18:31;14.30;99.90
35960;DHT22;22043;50.970;7.192;2022-10-10T11:21:08;14.30;99.90
35960;DHT22;22043;50.970;7.192;2022-10-10T11:23:40;14.40;99.90
35960;DHT22;22043;50.970;7.192;2022-10-10T11:26:28;14.40;99.90
35960;DHT22;22043;50.970;7.192;2022-10-10T11:29:22;14.50;99.90
35960;DHT22;22043;50.970;7.192;2022-10-10T11:32:00;14.60;99.90
35960;DHT22;22043;50.970;7.192;2022-10-10T11:34:34;14.60;99.90
35960;DHT22;22043;50.970;7.192;2022-10-10T11:37:07;14.70;99.90
35960;DHT22;22043;50.970;7.192;2022-10-10T11:39:50;14.70;99.90
35960;DHT22;22043;50.970;7.192;2022-10-10T11:42:44;14.80;99.90
35960;DHT22;22043;50.970;7.192;2022-10-10T11:45:30;14.90;99.90
35960;DHT22;22043;50.970;7.192;2022-10-10T11:48:09;15.00;99.90
35960;DHT22;22043;50.970;7.192;2022-10-10T11:50:41;15.00;99.90
35960;DHT22;22043;50.970;7.192;2022-10-10T11:53:12;15.00;99.90
35960;DHT22;22043;50.970;7.192;2022-10-10T11:55:49;15.10;99.90
35960;DHT22;22043;50.970;7.192;2022-10-10T11:58:27;15.20;99.90
35960;DHT22;22043;50.970;7.192;2022-10-10T12:01:00;15.20;99.90
35960;DHT22;22043;50.970;7.192;2022-10-10T12:03:26;15.30;99.90
35960;DHT22;22043;50.970;7.192;2022-10-10T12:06:03;15.30;99.90
35960;DHT22;22043;50.970;7.192;2022-10-10T12:08:35;15.30;99.90
35960;DHT22;22043;50.970;7.192;2022-10-10T12:11:21;15.30;99.90
35960;DHT22;22043;50.970;7.192;2022-10-10T12:13:52;15.30;99.90
35960;DHT22;22043;50.970;7.192;2022-10-10T12:16:21;15.30;99.90
35960;DHT22;22043;50.970;7.192;2022-10-10T12:19:05;15.30;99.90
35960;DHT22;22043;50.970;7.192;2022-10-10T12:21:59;15.30;99.90
35960;DHT22;22043;50.970;7.192;2022-10-10T12:24:37;15.30;99.90
35960;DHT22;22043;50.970;7.192;2022-10-10T12:27:27;15.40;99.90
35960;DHT22;22043;50.970;7.192;2022-10-10T12:37:33;15.50;99.90
35960;DHT22;22043;50.970;7.192;2022-10-10T12:42:43;15.60;99.90
35960;DHT22;22043;50.970;7.192;2022-10-10T12:50:29;15.70;99.90
35960;DHT22;22043;50.970;7.192;2022-10-10T12:53:05;15.70;99.90
35960;DHT22;22043;50.970;7.192;2022-10-10T12:55:41;15.70;99.90
35960;DHT22;22043;50.970;7.192;2022-10-10T12:58:14;15.70;99.90
35960;DHT22;22043;50.970;7.192;2022-10-10T13:00:43;15.70;99.90
35960;DHT22;22043;50.970;7.192;2022-10-10T13:03:15;15.70;99.90
35960;DHT22;22043;50.970;7.192;2022-10-10T13:05:43;15.70;99.90
35960;DHT22;22043;50.970;7.192;2022-10-10T13:08:15;15.70;99.90
35960;DHT22;22043;50.970;7.192;2022-10-10T13:10:42;15.80;99.90
35960;DHT22;22043;50.970;7.192;2022-10-10T13:13:19;15.70;99.90
35960;DHT22;22043;50.970;7.192;2022-10-10T13:15:52;15.70;99.90
35960;DHT22;22043;50.970;7.192;2022-10-10T13:18:34;15.60;99.90
35960;DHT22;22043;50.970;7.192;2022-10-10T13:21:02;15.60;99.90
35960;DHT22;22043;50.970;7.192;2022-10-10T13:23:28;15.70;99.90
35960;DHT22;22043;50.970;7.192;2022-10-10T13:25:54;15.60;99.90
35960;DHT22;22043;50.970;7.192;2022-10-10T13:28:20;15.70;99.90
35960;DHT22;22043;50.970;7.192;2022-10-10T13:30:47;15.60;99.90
35960;DHT22;22043;50.970;7.192;2022-10-10T13:33:16;15.60;99.90
35960;DHT22;22043;50.970;7.192;2022-10-10T13:35:44;15.60;99.90
35960;DHT22;22043;50.970;7.192;2022-10-10T13:38:10;15.60;99.90
35960;DHT22;22043;50.970;7.192;2022-10-10T13:40:39;15.60;99.90
35960;DHT22;22043;50.970;7.192;2022-10-10T13:43:17;15.50;99.90
35960;DHT22;22043;50.970;7.192;2022-10-10T13:46:02;15.50;99.90
35960;DHT22;22043;50.970;7.192;2022-10-10T13:51:11;15.40;99.90
35960;DHT22;22043;50.970;7.192;2022-10-10T13:56:11;15.30;99.90
35960;DHT22;22043;50.970;7.192;2022-10-10T14:03:54;15.40;99.90
35960;DHT22;22043;50.970;7.192;2022-10-10T14:06:24;15.40;99.90
35960;DHT22;22043;50.970;7.192;2022-10-10T14:08:51;15.40;99.90
35960;DHT22;22043;50.970;7.192;2022-10-10T14:11:19;15.50;99.90
35960;DHT22;22043;50.970;7.192;2022-10-10T14:13:49;15.50;99.90
35960;DHT22;22043;50.970;7.192;2022-10-10T14:18:42;15.50;99.90
35960;DHT22;22043;50.970;7.192;2022-10-10T14:21:08;15.50;99.90
35960;DHT22;22043;50.970;7.192;2022-10-10T14:23:34;15.50;99.90
35960;DHT22;22043;50.970;7.192;2022-10-10T14:26:00;15.50;99.90
35960;DHT22;22043;50.970;7.192;2022-10-10T14:28:29;15.50;99.90
35960;DHT22;22043;50.970;7.192;2022-10-10T14:30:55;15.40;99.90
35960;DHT22;22043;50.970;7.192;2022-10-10T14:33:20;15.40;99.90
35960;DHT22;22043;50.970;7.192;2022-10-10T14:35:48;15.40;99.90
35960;DHT22;22043;50.970;7.192;2022-10-10T14:38:15;15.30;99.90
35960;DHT22;22043;50.970;7.192;2022-10-10T14:40:43;15.30;99.90
35960;DHT22;22043;50.970;7.192;2022-10-10T14:43:10;15.30;99.90
35960;DHT22;22043;50.970;7.192;2022-10-10T14:45:35;15.30;99.90
35960;DHT22;22043;50.970;7.192;2022-10-10T14:48:01;15.30;99.90
35960;DHT22;22043;50.970;7.192;2022-10-10T14:50:31;15.40;99.90
35960;DHT22;22043;50.970;7.192;2022-10-10T14:52:57;15.40;99.90
35960;DHT22;22043;50.970;7.192;2022-10-10T14:55:23;15.40;99.90
35960;DHT22;22043;50.970;7.192;2022-10-10T14:57:49;15.50;99.90
35960;DHT22;22043;50.970;7.192;2022-10-10T15:00:17;15.60;99.90
35960;DHT22;22043;50.970;7.192;2022-10-10T15:02:42;15.50;99.90
35960;DHT22;22043;50.970;7.192;2022-10-10T15:05:08;15.60;99.90
35960;DHT22;22043;50.970;7.192;2022-10-10T15:07:34;15.60;99.90
35960;DHT22;22043;50.970;7.192;2022-10-10T15:10:00;15.60;99.90
35960;DHT22;22043;50.970;7.192;2022-10-10T15:12:25;15.60;99.90
35960;DHT22;22043;50.970;7.192;2022-10-10T15:14:51;15.60;99.90
35960;DHT22;22043;50.970;7.192;2022-10-10T15:17:16;15.60;99.90
35960;DHT22;22043;50.970;7.192;2022-10-10T15:19:42;15.60;99.90
35960;DHT22;22043;50.970;7.192;2022-10-10T15:22:08;15.60;99.90
35960;DHT22;22043;50.970;7.192;2022-10-10T15:24:34;15.50;99.90
35960;DHT22;22043;50.970;7.192;2022-10-10T15:27:00;15.50;99.90
35960;DHT22;22043;50.970;7.192;2022-10-10T15:29:26;15.50;99.90
35960;DHT22;22043;50.970;7.192;2022-10-10T15:31:52;15.40;99.90
35960;DHT22;22043;50.970;7.192;2022-10-10T15:34:21;15.40;99.90
35960;DHT22;22043;50.970;7.192;2022-10-10T15:36:48;15.40;99.90
35960;DHT22;22043;50.970;7.192;2022-10-10T15:39:14;15.40;99.90
35960;DHT22;22043;50.970;7.192;2022-10-10T15:41:40;15.30;99.90
35960;DHT22;22043;50.970;7.192;2022-10-10T15:44:12;15.30;99.90
35960;DHT22;22043;50.970;7.192;2022-10-10T15:46:38;15.30;99.90
35960;DHT22;22043;50.970;7.192;2022-10-10T15:49:04;15.30;99.90
35960;DHT22;22043;50.970;7.192;2022-10-10T15:51:30;15.40;99.90
35960;DHT22;22043;50.970;7.192;2022-10-10T15:53:57;15.40;99.90
35960;DHT22;22043;50.970;7.192;2022-10-10T15:56:23;15.30;99.90
35960;DHT22;22043;50.970;7.192;2022-10-10T15:58:57;15.40;99.90
35960;DHT22;22043;50.970;7.192;2022-10-10T16:01:23;15.40;99.90
35960;DHT22;22043;50.970;7.192;2022-10-10T16:03:49;15.40;99.90
35960;DHT22;22043;50.970;7.192;2022-10-10T16:06:17;15.40;99.90
35960;DHT22;22043;50.970;7.192;2022-10-10T16:08:43;15.30;99.90
35960;DHT22;22043;50.970;7.192;2022-10-10T16:11:15;15.40;99.90
35960;DHT22;22043;50.970;7.192;2022-10-10T16:13:46;15.40;99.90
35960;DHT22;22043;50.970;7.192;2022-10-10T16:16:12;15.40;99.90
35960;DHT22;22043;50.970;7.192;2022-10-10T16:18:39;15.30;99.90
35960;DHT22;22043;50.970;7.192;2022-10-10T16:21:09;15.30;99.90
35960;DHT22;22043;50.970;7.192;2022-10-10T16:23:35;15.30;99.90
35960;DHT22;22043;50.970;7.192;2022-10-10T16:26:03;15.20;99.90
35960;DHT22;22043;50.970;7.192;2022-10-10T16:28:29;15.20;99.90
35960;DHT22;22043;50.970;7.192;2022-10-10T16:30:55;15.10;99.90
35960;DHT22;22043;50.970;7.192;2022-10-10T16:33:20;15.10;99.90
35960;DHT22;22043;50.970;7.192;2022-10-10T16:35:46;15.10;99.90
35960;DHT22;22043;50.970;7.192;2022-10-10T16:38:12;15.10;99.90
35960;DHT22;22043;50.970;7.192;2022-10-10T16:40:37;15.20;99.90
35960;DHT22;22043;50.970;7.192;2022-10-10T16:43:03;15.10;99.90
35960;DHT22;22043;50.970;7.192;2022-10-10T16:45:29;15.10;99.90
35960;DHT22;22043;50.970;7.192;2022-10-10T16:47:55;15.10;99.90
35960;DHT22;22043;50.970;7.192;2022-10-10T16:50:21;15.10;99.90
35960;DHT22;22043;50.970;7.192;2022-10-10T16:52:46;15.10;99.90
35960;DHT22;22043;50.970;7.192;2022-10-10T16:55:12;15.10;99.90
35960;DHT22;22043;50.970;7.192;2022-10-10T16:57:38;15.10;99.90
35960;DHT22;22043;50.970;7.192;2022-10-10T17:00:06;15.10;99.90
35960;DHT22;22043;50.970;7.192;2022-10-10T17:02:32;15.10;99.90